createdAt,value
2023-01-03T00:01:17.180Z,10.23
2023-01-03T00:03:45.177Z,10.22
2023-01-03T00:06:17.472Z,10.20
2023-01-03T00:08:45.530Z,10.13
2023-01-03T00:11:14.015Z,10.19
2023-01-03T00:13:41.118Z,10.18
2023-01-03T00:16:17.908Z,10.16
2023-01-03T00:18:45.943Z,10.13
2023-01-03T00:21:13.917Z,10.13
2023-01-03T00:23:41.730Z,10.12
2023-01-03T00:26:11.066Z,10.13
2023-01-03T00:28:39.413Z,10.11
2023-01-03T00:31:08.527Z,10.10
2023-01-03T00:33:38.674Z,10.08
2023-01-03T00:36:09.213Z,10.07
2023-01-03T00:38:37.979Z,10.06
2023-01-03T00:41:06.782Z,10.06
2023-01-03T00:43:35.235Z,10.05
2023-01-03T00:46:03.548Z,10.03
2023-01-03T00:48:31.733Z,10.02
2023-01-03T00:51:06.732Z,10.01
2023-01-03T00:53:34.812Z,9.99
2023-01-03T00:56:06.230Z,9.98
2023-01-03T00:58:34.799Z,9.95
2023-01-03T01:01:06.481Z,9.95
2023-01-03T01:03:34.633Z,9.92
2023-01-03T01:06:12.133Z,9.92
2023-01-03T01:08:39.943Z,9.92
2023-01-03T01:11:08.195Z,9.91
2023-01-03T01:13:36.700Z,9.90
2023-01-03T01:16:06.179Z,9.89
2023-01-03T01:18:34.292Z,9.87
2023-01-03T01:21:05.800Z,9.86
2023-01-03T01:23:33.607Z,9.86
2023-01-03T01:26:01.695Z,9.86
2023-01-03T01:28:29.640Z,9.84
2023-01-03T01:30:59.600Z,9.83
2023-01-03T01:33:27.580Z,9.84
2023-01-03T01:35:55.711Z,9.83
2023-01-03T01:38:24.942Z,9.81
2023-01-03T01:40:52.742Z,9.79
2023-01-03T01:43:41.119Z,9.80
2023-01-03T01:46:17.403Z,9.68
2023-01-03T01:48:45.320Z,9.76
2023-01-03T01:51:14.201Z,9.75
2023-01-03T01:53:44.181Z,9.73
2023-01-03T01:56:18.403Z,9.73
2023-01-03T01:58:49.500Z,9.71
2023-01-03T02:01:20.388Z,9.69
2023-01-03T02:03:55.461Z,9.60
2023-01-03T02:06:25.482Z,9.67
2023-01-03T02:08:54.623Z,9.66
2023-01-03T02:11:34.793Z,9.65
2023-01-03T02:14:15.527Z,9.61
2023-01-03T02:17:01.519Z,9.62
2023-01-03T02:19:58.332Z,9.59
2023-01-03T02:22:48.044Z,9.58
2023-01-03T02:26:06.478Z,9.58
2023-01-03T02:29:03.139Z,9.56
2023-01-03T02:31:39.462Z,9.54
2023-01-03T02:34:21.384Z,9.54
2023-01-03T02:37:00.188Z,9.53
2023-01-03T02:39:32.789Z,9.52
2023-01-03T02:42:22.706Z,9.52
2023-01-03T02:44:59.322Z,9.50
2023-01-03T02:47:38.315Z,9.48
2023-01-03T02:50:10.652Z,9.47
2023-01-03T02:52:41.108Z,9.46
2023-01-03T02:55:14.633Z,9.35
2023-01-03T02:57:47.619Z,9.41
2023-01-03T03:00:19.351Z,9.42
2023-01-03T03:02:52.115Z,9.40
2023-01-03T03:05:25.928Z,9.40
2023-01-03T03:07:54.006Z,9.38
2023-01-03T03:10:40.637Z,9.38
2023-01-03T03:13:17.023Z,9.37
2023-01-03T03:15:55.984Z,9.37
2023-01-03T03:18:32.482Z,9.36
2023-01-03T03:21:20.207Z,9.35
2023-01-03T03:24:07.597Z,9.27
2023-01-03T03:26:38.457Z,9.32
2023-01-03T03:29:10.769Z,9.31
2023-01-03T03:31:42.405Z,9.31
2023-01-03T03:34:14.288Z,9.29
2023-01-03T03:36:49.526Z,9.27
2023-01-03T03:39:35.890Z,9.27
2023-01-03T03:42:32.962Z,9.27
2023-01-03T03:45:10.482Z,9.25
2023-01-03T03:47:45.805Z,9.14
2023-01-03T03:50:22.377Z,9.19
2023-01-03T03:52:56.067Z,9.22
2023-01-03T03:55:26.953Z,9.21
2023-01-03T03:58:00.670Z,9.18
2023-01-03T04:00:33.972Z,9.09
2023-01-03T04:03:03.783Z,9.17
2023-01-03T04:05:37.269Z,9.17
2023-01-03T04:08:05.333Z,9.14
2023-01-03T04:10:37.738Z,9.04
2023-01-03T04:13:06.522Z,9.13
2023-01-03T04:15:34.320Z,9.12
2023-01-03T04:18:02.627Z,9.11
2023-01-03T04:20:30.825Z,9.10
2023-01-03T04:22:59.968Z,9.10
2023-01-03T04:25:27.883Z,9.08
2023-01-03T04:27:55.604Z,9.07
2023-01-03T04:30:23.581Z,9.07
2023-01-03T04:32:51.355Z,9.06
2023-01-03T04:35:19.152Z,9.07
2023-01-03T04:37:47.043Z,9.05
2023-01-03T04:40:16.372Z,9.04
2023-01-03T04:43:02.014Z,9.03
2023-01-03T04:45:29.861Z,9.01
2023-01-03T04:47:57.655Z,9.01
2023-01-03T04:50:25.628Z,9.00
2023-01-03T04:52:53.471Z,9.00
2023-01-03T04:55:22.624Z,8.97
2023-01-03T04:57:50.533Z,8.97
2023-01-03T05:00:18.689Z,8.96
2023-01-03T05:02:46.678Z,8.94
2023-01-03T05:05:14.509Z,8.95
2023-01-03T05:07:42.284Z,8.94
2023-01-03T05:10:10.382Z,8.94
2023-01-03T05:12:39.617Z,8.96
2023-01-03T05:15:08.680Z,8.94
2023-01-03T05:17:36.488Z,8.89
2023-01-03T05:20:22.262Z,8.95
2023-01-03T05:23:07.405Z,8.95
2023-01-03T05:25:53.180Z,8.96
2023-01-03T05:28:25.039Z,8.86
2023-01-03T05:30:52.818Z,8.94
2023-01-03T05:33:20.603Z,8.93
2023-01-03T05:35:49.019Z,8.93
2023-01-03T05:38:16.809Z,8.92
2023-01-03T05:40:44.784Z,8.92
2023-01-03T05:43:12.911Z,8.92
2023-01-03T05:45:42.424Z,8.92
2023-01-03T05:48:10.799Z,8.91
2023-01-03T05:50:39.176Z,8.90
2023-01-03T05:53:06.954Z,8.89
2023-01-03T05:55:37.016Z,8.90
2023-01-03T05:58:05.571Z,8.88
2023-01-03T06:00:33.399Z,8.88
2023-01-03T06:03:02.675Z,8.88
2023-01-03T06:05:30.666Z,8.87
2023-01-03T06:08:00.985Z,8.89
2023-01-03T06:10:28.882Z,8.88
2023-01-03T06:12:57.141Z,8.88
2023-01-03T06:15:25.041Z,8.87
2023-01-03T06:17:54.966Z,8.87
2023-01-03T06:20:24.711Z,8.87
2023-01-03T06:22:54.207Z,8.86
2023-01-03T06:25:22.807Z,8.87
2023-01-03T06:27:50.612Z,8.86
2023-01-03T06:30:18.918Z,8.86
2023-01-03T06:32:46.924Z,8.88
2023-01-03T06:35:14.735Z,8.86
2023-01-03T06:37:44.075Z,8.86
2023-01-03T06:40:12.753Z,8.85
2023-01-03T06:42:42.461Z,8.88
2023-01-03T06:45:30.594Z,8.89
2023-01-03T06:48:19.056Z,8.88
2023-01-03T06:51:04.397Z,8.89
2023-01-03T06:53:36.403Z,8.89
2023-01-03T06:56:04.889Z,8.92
2023-01-03T06:58:32.824Z,8.92
2023-01-03T07:01:03.513Z,8.93
2023-01-03T07:03:31.388Z,8.91
2023-01-03T07:05:59.232Z,8.92
2023-01-03T07:08:27.084Z,8.94
2023-01-03T07:10:57.035Z,8.93
2023-01-03T07:13:42.425Z,8.93
2023-01-03T07:16:15.272Z,8.94
2023-01-03T07:18:44.991Z,8.91
2023-01-03T07:21:14.930Z,8.93
2023-01-03T07:23:43.067Z,8.94
2023-01-03T07:26:12.650Z,8.92
2023-01-03T07:28:40.423Z,8.91
2023-01-03T07:31:08.826Z,8.90
2023-01-03T07:33:39.184Z,8.91
2023-01-03T07:36:12.079Z,8.91
2023-01-03T07:38:42.031Z,8.92
2023-01-03T07:41:10.696Z,8.93
2023-01-03T07:43:41.774Z,8.93
2023-01-03T07:46:11.737Z,8.94
2023-01-03T07:48:40.248Z,8.91
2023-01-03T07:51:09.531Z,8.91
2023-01-03T07:53:37.832Z,8.92
2023-01-03T07:56:12.620Z,8.94
2023-01-03T07:58:44.318Z,8.94
2023-01-03T08:01:14.365Z,8.93
2023-01-03T08:03:43.122Z,8.93
2023-01-03T08:06:13.475Z,8.92
2023-01-03T08:08:41.906Z,8.90
2023-01-03T08:11:30.369Z,8.90
2023-01-03T08:14:00.403Z,8.90
2023-01-03T08:16:28.445Z,8.90
2023-01-03T08:18:56.295Z,8.91
2023-01-03T08:21:24.052Z,8.92
2023-01-03T08:23:51.828Z,8.93
2023-01-03T08:26:21.088Z,8.93
2023-01-03T08:28:48.854Z,8.92
2023-01-03T08:31:20.674Z,8.94
2023-01-03T08:33:51.432Z,8.94
2023-01-03T08:36:20.915Z,8.93
2023-01-03T08:38:51.713Z,8.93
2023-01-03T08:41:23.919Z,8.92
2023-01-03T08:43:51.850Z,8.93
2023-01-03T08:46:21.670Z,8.92
2023-01-03T08:48:49.683Z,9.01
2023-01-03T08:51:17.587Z,9.16
2023-01-03T08:53:45.446Z,9.34
2023-01-03T08:56:13.616Z,9.50
2023-01-03T08:58:41.447Z,9.68
2023-01-03T09:01:11.519Z,9.84
2023-01-03T09:03:41.836Z,10.00
2023-01-03T09:06:09.837Z,10.17
2023-01-03T09:08:37.623Z,10.32
2023-01-03T09:11:06.352Z,10.48
2023-01-03T09:13:34.369Z,10.58
2023-01-03T09:16:02.912Z,10.71
2023-01-03T09:18:30.874Z,10.81
2023-01-03T09:21:00.124Z,10.87
2023-01-03T09:23:27.887Z,10.94
2023-01-03T09:25:55.737Z,10.96
2023-01-03T09:28:23.669Z,10.99
2023-01-03T09:30:51.522Z,11.01
2023-01-03T09:33:19.680Z,11.05
2023-01-03T09:35:47.422Z,11.07
2023-01-03T09:38:16.620Z,11.07
2023-01-03T09:40:47.160Z,11.08
2023-01-03T09:43:23.040Z,11.13
2023-01-03T09:45:55.190Z,11.03
2023-01-03T09:48:29.989Z,11.02
2023-01-03T09:51:18.478Z,10.75
2023-01-03T09:54:04.403Z,10.58
2023-01-03T09:56:50.906Z,10.38
2023-01-03T09:59:37.518Z,10.23
2023-01-03T10:02:44.247Z,10.11
2023-01-03T10:05:30.746Z,10.02
2023-01-03T10:08:18.375Z,9.94
2023-01-03T10:10:58.556Z,9.88
2023-01-03T10:13:41.671Z,9.84
2023-01-03T10:16:19.091Z,9.83
2023-01-03T10:19:04.696Z,9.79
2023-01-03T10:21:43.233Z,9.75
2023-01-03T10:24:19.223Z,9.72
2023-01-03T10:26:50.264Z,9.68
2023-01-03T10:29:20.214Z,9.65
2023-01-03T10:32:04.300Z,9.63
2023-01-03T10:34:32.154Z,9.61
2023-01-03T10:36:59.967Z,9.59
2023-01-03T10:39:32.289Z,9.60
2023-01-03T10:42:01.550Z,9.59
2023-01-03T10:44:31.572Z,9.57
2023-01-03T10:47:08.886Z,9.56
2023-01-03T10:49:37.186Z,9.56
2023-01-03T10:52:13.228Z,9.54
2023-01-03T10:54:50.075Z,9.52
2023-01-03T10:57:43.723Z,9.52
2023-01-03T11:00:28.855Z,9.50
2023-01-03T11:03:02.491Z,9.51
2023-01-03T11:05:30.580Z,9.50
2023-01-03T11:08:01.674Z,9.50
2023-01-03T11:10:38.482Z,9.50
2023-01-03T11:13:22.608Z,9.50
2023-01-03T11:15:55.416Z,9.49
2023-01-03T11:18:23.737Z,9.49
2023-01-03T11:20:56.953Z,9.51
2023-01-03T11:23:34.487Z,9.51
2023-01-03T11:26:13.022Z,9.50
2023-01-03T11:29:24.548Z,9.51
2023-01-03T11:31:58.380Z,9.52
2023-01-03T11:35:20.731Z,9.54
2023-01-03T11:37:41.093Z,9.54
2023-01-03T11:40:17.859Z,9.52
2023-01-03T11:42:59.902Z,9.54
2023-01-03T11:45:49.805Z,9.55
2023-01-03T11:48:35.469Z,9.55
2023-01-03T11:51:14.267Z,9.56
2023-01-03T11:53:54.356Z,9.56
2023-01-03T11:56:29.090Z,9.55
2023-01-03T11:59:29.091Z,9.54
2023-01-03T12:02:32.790Z,9.53
2023-01-03T12:05:13.617Z,9.53
2023-01-03T12:07:54.562Z,9.54
2023-01-03T12:10:29.362Z,9.54
2023-01-03T12:13:16.743Z,9.54
2023-01-03T12:15:46.744Z,9.53
2023-01-03T12:18:26.214Z,9.52
2023-01-03T12:20:59.989Z,9.53
2023-01-03T12:23:38.700Z,9.52
2023-01-03T12:26:09.807Z,9.52
2023-01-03T12:28:48.548Z,9.54
2023-01-03T12:31:31.326Z,9.55
2023-01-03T12:34:12.235Z,9.56
2023-01-03T12:36:46.563Z,9.57
2023-01-03T12:39:39.060Z,9.57
2023-01-03T12:42:15.882Z,9.59
2023-01-03T12:44:45.459Z,9.60
2023-01-03T12:47:29.882Z,9.59
2023-01-03T12:50:04.675Z,9.58
2023-01-03T12:52:35.378Z,9.59
2023-01-03T12:55:09.396Z,9.65
2023-01-03T12:57:55.183Z,9.79
2023-01-03T13:00:36.163Z,10.06
2023-01-03T13:03:08.913Z,10.20
2023-01-03T13:05:48.169Z,10.39
2023-01-03T13:08:24.208Z,10.65
2023-01-03T13:10:56.155Z,10.74
2023-01-03T13:13:24.151Z,10.92
2023-01-03T13:15:52.045Z,11.05
2023-01-03T13:18:32.970Z,11.19
2023-01-03T13:21:02.327Z,11.29
2023-01-03T13:23:46.592Z,11.40
2023-01-03T13:26:22.897Z,11.50
2023-01-03T13:28:51.555Z,11.55
2023-01-03T13:31:40.844Z,11.57
2023-01-03T13:34:39.474Z,11.53
2023-01-03T13:37:18.197Z,11.65
2023-01-03T13:39:58.335Z,11.66
2023-01-03T13:42:31.105Z,11.72
2023-01-03T13:45:35.600Z,11.75
2023-01-03T13:48:18.553Z,11.77
2023-01-03T13:51:10.876Z,11.84
2023-01-03T13:53:52.950Z,11.79
2023-01-03T13:56:24.100Z,11.66
2023-01-03T13:58:53.652Z,11.38
2023-01-03T14:01:33.300Z,11.32
2023-01-03T14:04:23.895Z,11.09
2023-01-03T14:07:25.423Z,10.93
2023-01-03T14:10:13.698Z,10.80
2023-01-03T14:13:15.726Z,10.72
2023-01-03T14:15:44.015Z,10.69
2023-01-03T14:18:20.921Z,10.59
2023-01-03T14:20:52.531Z,10.53
2023-01-03T14:26:16.087Z,10.43
2023-01-03T14:28:49.388Z,10.40
2023-01-03T14:31:20.618Z,10.40
2023-01-03T14:33:54.923Z,10.38
2023-01-03T14:36:22.979Z,10.51
2023-01-03T14:38:52.509Z,10.68
2023-01-03T14:41:29.572Z,10.88
2023-01-03T14:44:01.513Z,11.08
2023-01-03T14:46:30.979Z,11.24
2023-01-03T14:49:03.470Z,11.41
2023-01-03T14:51:34.499Z,11.46
2023-01-03T14:54:03.227Z,11.73
2023-01-03T14:56:33.361Z,11.88
2023-01-03T14:59:02.147Z,11.95
2023-01-03T15:01:30.522Z,11.95
2023-01-03T15:04:00.366Z,11.79
2023-01-03T15:06:30.978Z,11.58
2023-01-03T15:09:00.503Z,11.43
2023-01-03T15:11:35.274Z,11.27
2023-01-03T15:14:06.100Z,11.12
2023-01-03T15:16:37.070Z,11.03
2023-01-03T15:19:13.423Z,10.92
2023-01-03T15:21:42.728Z,10.86
2023-01-03T15:24:17.803Z,10.82
2023-01-03T15:26:49.131Z,10.78
2023-01-03T15:29:19.443Z,10.72
2023-01-03T15:31:49.903Z,10.70
2023-01-03T15:34:19.733Z,10.68
2023-01-03T15:36:50.541Z,10.69
2023-01-03T15:39:20.499Z,10.67
2023-01-03T15:44:56.321Z,10.59
2023-01-03T15:47:27.442Z,10.55
2023-01-03T15:50:00.849Z,10.54
2023-01-03T15:52:28.665Z,10.53
2023-01-03T15:54:56.632Z,10.48
2023-01-03T15:57:30.972Z,10.39
2023-01-03T16:00:02.975Z,10.46
2023-01-03T16:02:31.606Z,10.40
2023-01-03T16:04:59.643Z,10.46
2023-01-03T16:07:27.894Z,10.46
2023-01-03T16:09:55.737Z,10.45
2023-01-03T16:12:31.429Z,10.41
2023-01-03T16:14:59.413Z,10.39
2023-01-03T16:17:29.262Z,10.41
2023-01-03T16:19:59.561Z,10.39
2023-01-03T16:22:36.467Z,10.40
2023-01-03T16:25:06.555Z,10.47
2023-01-03T16:27:35.952Z,10.42
2023-01-03T16:30:03.768Z,10.37
2023-01-03T16:32:31.993Z,10.35
2023-01-03T16:35:02.214Z,10.34
2023-01-03T16:37:30.040Z,10.45
2023-01-03T16:39:58.381Z,10.44
2023-01-03T16:42:28.521Z,10.41
2023-01-03T16:44:58.099Z,10.37
2023-01-03T16:47:30.341Z,10.37
2023-01-03T16:50:01.896Z,10.36
2023-01-03T16:52:34.335Z,10.33
2023-01-03T16:55:05.276Z,10.33
2023-01-03T16:57:33.292Z,10.30
2023-01-03T17:00:02.729Z,10.33
2023-01-03T17:02:30.761Z,10.36
2023-01-03T17:04:58.597Z,10.38
2023-01-03T17:07:26.526Z,10.33
2023-01-03T17:09:54.332Z,10.39
2023-01-03T17:12:24.867Z,10.52
2023-01-03T17:14:53.262Z,10.71
2023-01-03T17:17:24.442Z,10.84
2023-01-03T17:20:07.770Z,10.99
2023-01-03T17:22:35.800Z,11.18
2023-01-03T17:25:03.605Z,11.36
2023-01-03T17:27:32.880Z,11.59
2023-01-03T17:30:05.012Z,11.80
2023-01-03T17:32:34.381Z,11.92
2023-01-03T17:35:03.194Z,11.85
2023-01-03T17:37:45.474Z,11.70
2023-01-03T17:40:27.648Z,11.53
2023-01-03T17:42:59.920Z,11.35
2023-01-03T17:45:45.520Z,11.34
2023-01-03T17:48:32.862Z,11.22
2023-01-03T17:51:02.184Z,11.24
2023-01-03T17:53:30.640Z,11.16
2023-01-03T17:55:58.697Z,11.11
2023-01-03T17:58:34.711Z,10.97
2023-01-03T18:01:03.123Z,10.93
2023-01-03T18:03:33.044Z,10.88
2023-01-03T18:06:05.891Z,10.83
2023-01-03T18:08:34.223Z,10.87
2023-01-03T18:11:02.097Z,10.85
2023-01-03T18:13:33.662Z,10.78
2023-01-03T18:16:01.661Z,10.71
2023-01-03T18:18:30.221Z,10.65
2023-01-03T18:21:00.805Z,10.61
2023-01-03T18:23:31.704Z,10.56
2023-01-03T18:26:02.432Z,10.53
2023-01-03T18:28:30.371Z,10.52
2023-01-03T18:30:59.088Z,10.50
2023-01-03T18:33:27.095Z,10.50
2023-01-03T18:35:55.335Z,10.48
2023-01-03T18:38:30.634Z,10.46
2023-01-03T18:41:04.388Z,10.42
2023-01-03T18:43:33.283Z,10.41
2023-01-03T18:46:01.279Z,10.30
2023-01-03T18:48:29.281Z,10.36
2023-01-03T18:50:59.319Z,10.39
2023-01-03T18:53:32.052Z,10.39
2023-01-03T18:56:00.191Z,10.42
2023-01-03T18:58:33.062Z,10.35
2023-01-03T19:01:01.379Z,10.44
2023-01-03T19:03:31.193Z,10.45
2023-01-03T19:06:00.479Z,10.45
2023-01-03T19:08:33.535Z,10.43
2023-01-03T19:11:06.949Z,10.43
2023-01-03T19:13:50.305Z,10.43
2023-01-03T19:16:20.495Z,10.41
2023-01-03T19:18:49.150Z,10.41
2023-01-03T19:21:18.054Z,10.39
2023-01-03T19:23:51.550Z,10.39
2023-01-03T19:26:29.507Z,10.42
2023-01-03T19:29:01.506Z,10.56
2023-01-03T19:31:31.778Z,10.73
2023-01-03T19:33:59.771Z,10.81
2023-01-03T19:36:27.616Z,10.85
2023-01-03T19:38:56.772Z,10.85
2023-01-03T19:41:24.522Z,10.84
2023-01-03T19:43:52.297Z,10.78
2023-01-03T19:46:20.324Z,10.75
2023-01-03T19:48:48.155Z,10.73
2023-01-03T19:51:15.989Z,10.70
2023-01-03T19:53:43.822Z,10.65
2023-01-03T19:56:23.959Z,10.61
2023-01-03T19:58:54.495Z,10.58
2023-01-03T20:01:25.821Z,10.57
2023-01-03T20:03:53.941Z,10.55
2023-01-03T20:06:22.009Z,10.53
2023-01-03T20:08:49.908Z,10.52
2023-01-03T20:11:21.134Z,10.42
2023-01-03T20:13:49.296Z,10.46
2023-01-03T20:16:17.651Z,10.46
2023-01-03T20:18:45.603Z,10.44
2023-01-03T20:21:22.568Z,10.42
2023-01-03T20:23:54.131Z,10.40
2023-01-03T20:26:26.655Z,10.40
2023-01-03T20:28:56.064Z,10.40
2023-01-03T20:31:24.157Z,10.37
2023-01-03T20:33:52.255Z,10.37
2023-01-03T20:36:23.888Z,10.36
2023-01-03T20:38:55.921Z,10.34
2023-01-03T20:41:36.380Z,10.33
2023-01-03T20:44:04.726Z,10.32
2023-01-03T20:46:32.594Z,10.31
2023-01-03T20:49:03.352Z,10.29
2023-01-03T20:51:32.768Z,10.30
2023-01-03T20:54:00.645Z,10.29
2023-01-03T20:56:32.866Z,10.28
2023-01-03T20:59:00.740Z,10.25
2023-01-03T21:01:28.692Z,10.25
2023-01-03T21:03:56.770Z,10.24
2023-01-03T21:06:29.502Z,10.24
2023-01-03T21:08:57.953Z,10.20
2023-01-03T21:11:28.036Z,10.35
2023-01-03T21:13:58.946Z,10.34
2023-01-03T21:16:33.262Z,10.31
2023-01-03T21:19:07.516Z,10.28
2023-01-03T21:21:36.055Z,10.28
2023-01-03T21:24:04.709Z,10.26
2023-01-03T21:26:32.478Z,10.25
2023-01-03T21:29:01.695Z,10.24
2023-01-03T21:31:29.568Z,10.24
2023-01-03T21:33:57.690Z,10.23
2023-01-03T21:36:28.760Z,10.21
2023-01-03T21:38:56.863Z,10.22
2023-01-03T21:41:26.763Z,10.21
2023-01-03T21:43:56.636Z,10.20
2023-01-03T21:46:26.831Z,10.22
2023-01-03T21:48:55.387Z,10.15
2023-01-03T21:51:33.462Z,10.23
2023-01-03T21:54:05.673Z,10.23
2023-01-03T21:56:33.501Z,10.24
2023-01-03T21:59:01.265Z,10.23
2023-01-03T22:01:50.554Z,10.21
2023-01-03T22:04:20.205Z,10.21
2023-01-03T22:06:48.032Z,10.21
2023-01-03T22:09:29.811Z,10.20
2023-01-03T22:11:57.646Z,10.18
2023-01-03T22:14:25.516Z,10.20
2023-01-03T22:16:54.791Z,10.15
2023-01-03T22:19:22.641Z,10.19
2023-01-03T22:21:50.424Z,10.22
2023-01-03T22:24:18.208Z,10.22
2023-01-03T22:26:46.204Z,10.23
2023-01-03T22:29:13.991Z,10.19
2023-01-03T22:31:41.884Z,10.19
2023-01-03T22:34:11.158Z,10.20
2023-01-03T22:36:38.982Z,10.18
2023-01-03T22:39:06.858Z,10.18
2023-01-03T22:41:34.733Z,10.18
2023-01-03T22:44:02.539Z,10.18
2023-01-03T22:46:30.478Z,10.19
2023-01-03T22:48:58.386Z,10.19
2023-01-03T22:51:27.600Z,10.18
2023-01-03T22:53:55.396Z,10.17
2023-01-03T22:56:23.198Z,10.18
2023-01-03T22:58:51.087Z,10.18
2023-01-03T23:01:22.715Z,10.10
2023-01-03T23:03:50.751Z,10.18
2023-01-03T23:06:21.021Z,10.17
2023-01-03T23:08:51.430Z,10.18
2023-01-03T23:11:39.378Z,10.18
2023-01-03T23:14:09.060Z,10.16
2023-01-03T23:16:36.946Z,10.16
2023-01-03T23:19:06.274Z,10.15
2023-01-03T23:21:34.438Z,10.16
2023-01-03T23:24:04.409Z,10.14
2023-01-03T23:26:32.315Z,10.16
2023-01-03T23:29:01.354Z,10.14
2023-01-03T23:31:29.510Z,10.14
2023-01-03T23:33:58.135Z,10.13
2023-01-03T23:36:26.736Z,10.14
2023-01-03T23:38:54.882Z,10.15
2023-01-03T23:41:24.059Z,10.14
2023-01-03T23:43:52.721Z,10.14
2023-01-03T23:46:22.476Z,10.15
2023-01-03T23:48:54.572Z,10.14
2023-01-03T23:51:22.431Z,10.12
2023-01-03T23:53:50.201Z,10.11
2023-01-03T23:56:19.609Z,10.13
2023-01-03T23:58:48.944Z,10.14
